Time;durP1;ratioP1;P1;durP2;ratioP2;P2;SDS_P1;SDS_P2;PMS_P1;PMS_P2;Temp;Humidity;BMP_temperature;BMP_pressure;BME280_temperature;BME280_humidity;BME280_pressure;Samples;Min_cycle;Max_cycle;Signal;HPM_P1;HPM_P2
2023/09/29 00:01:46;;;;;;;14.10;3.72;;;;;;;16.40;94.89;101504.25;6099723;19;20256;-73
2023/09/29 00:03:51;;;;;;;14.82;4.22;;;;;;;16.46;94.74;101497.75;6099090;19;20006;-73
2023/09/29 00:05:58;;;;;;;18.25;4.63;;;;;;;16.50;94.32;101503.72;6100172;19;20014;-72
2023/09/29 00:08:03;;;;;;;19.27;4.25;;;;;;;16.47;94.63;101502.09;6105068;19;20002;-73
2023/09/29 00:10:11;;;;;;;19.45;4.82;;;;;;;16.49;94.18;101494.06;6102114;19;20014;-74
2023/09/29 00:12:16;;;;;;;15.52;4.45;;;;;;;16.53;93.76;101493.78;6101595;19;20006;-72
2023/09/29 00:14:23;;;;;;;18.73;4.18;;;;;;;16.52;94.13;101485.94;6099357;19;20475;-72
2023/09/29 00:16:28;;;;;;;13.43;3.63;;;;;;;16.54;93.84;101490.22;6100985;19;20475;-71
2023/09/29 00:18:33;;;;;;;13.55;4.22;;;;;;;16.59;93.76;101477.56;6099394;19;20014;-69
2023/09/29 00:20:39;;;;;;;17.13;4.35;;;;;;;16.58;93.71;101490.91;6094001;19;20635;-71
2023/09/29 00:22:44;;;;;;;21.15;6.22;;;;;;;16.59;93.39;101488.16;6100034;19;20047;-70
2023/09/29 00:24:50;;;;;;;20.85;4.00;;;;;;;16.60;93.24;101481.91;6099333;19;20105;-69
2023/09/29 00:26:55;;;;;;;15.38;3.92;;;;;;;16.63;92.75;101479.06;6101804;19;20015;-69
2023/09/29 00:29:02;;;;;;;20.73;4.47;;;;;;;16.70;92.73;101489.38;6103078;19;20423;-69
2023/09/29 00:31:10;;;;;;;16.92;3.92;;;;;;;16.70;92.92;101471.66;6100314;19;20038;-69
2023/09/29 00:33:15;;;;;;;12.90;4.03;;;;;;;16.73;92.33;101478.56;6098157;19;20042;-70
2023/09/29 00:35:24;;;;;;;21.38;4.63;;;;;;;16.75;91.78;101480.22;6099036;19;20018;-70
2023/09/29 00:37:30;;;;;;;16.17;4.43;;;;;;;16.74;92.14;101472.31;6100821;19;20006;-70
2023/09/29 00:39:35;;;;;;;19.85;4.50;;;;;;;16.76;91.91;101471.28;6094466;19;20019;-70
2023/09/29 00:41:41;;;;;;;14.05;3.90;;;;;;;16.75;91.50;101472.25;6100613;19;20003;-70
2023/09/29 00:43:47;;;;;;;18.90;4.05;;;;;;;16.77;91.85;101470.41;6101435;19;20328;-70
2023/09/29 00:45:53;;;;;;;17.50;4.90;;;;;;;16.85;91.13;101464.63;6099182;19;20007;-69
2023/09/29 00:48:07;;;;;;;15.30;5.38;;;;;;;16.85;91.39;101461.97;6098709;19;20018;-69
2023/09/29 00:50:18;;;;;;;17.42;4.10;;;;;;;16.85;91.40;101467.28;6100966;19;20021;-70
2023/09/29 00:52:25;;;;;;;20.65;5.40;;;;;;;16.84;91.41;101473.53;6099608;19;20549;-69
2023/09/29 00:54:33;;;;;;;11.30;4.05;;;;;;;16.85;91.31;101469.94;6095396;19;20015;-71
2023/09/29 00:56:39;;;;;;;14.35;5.03;;;;;;;16.83;91.34;101469.19;6097148;19;20006;-69
2023/09/29 00:58:44;;;;;;;18.17;4.85;;;;;;;16.81;91.54;101466.63;6097185;19;20011;-69
2023/09/29 01:00:52;;;;;;;15.98;4.20;;;;;;;16.80;91.20;101469.38;6100634;19;20026;-69
2023/09/29 01:02:58;;;;;;;17.25;4.95;;;;;;;16.80;91.45;101467.56;6101208;19;20014;-71
2023/09/29 01:05:10;;;;;;;17.85;4.63;;;;;;;16.83;91.37;101466.53;6095641;19;20018;-70
2023/09/29 01:07:16;;;;;;;16.70;4.68;;;;;;;16.79;91.32;101457.03;6098721;19;20026;-71
2023/09/29 01:09:21;;;;;;;19.05;5.93;;;;;;;16.76;91.49;101454.50;6098563;19;20499;-71
2023/09/29 01:11:27;;;;;;;16.83;5.13;;;;;;;16.77;91.76;101453.56;6100048;19;20015;-70
2023/09/29 01:13:32;;;;;;;13.23;4.38;;;;;;;16.79;91.41;101451.72;6098877;19;20601;-69
2023/09/29 01:15:39;;;;;;;18.65;4.38;;;;;;;16.73;92.11;101447.59;6103265;19;20019;-73
2023/09/29 01:17:46;;;;;;;14.63;5.00;;;;;;;16.71;92.10;101451.25;6103138;19;20467;-73
2023/09/29 01:19:52;;;;;;;15.50;5.00;;;;;;;16.68;92.51;101449.63;6099934;19;20010;-73
2023/09/29 01:22:00;;;;;;;17.80;4.55;;;;;;;16.75;92.17;101439.53;6103839;19;20137;-73
2023/09/29 01:24:08;;;;;;;14.50;4.32;;;;;;;16.79;92.23;101422.50;6102191;19;20023;-72
2023/09/29 01:26:16;;;;;;;16.50;4.78;;;;;;;16.75;92.25;101427.13;6101685;19;20028;-70
2023/09/29 01:28:21;;;;;;;18.38;3.90;;;;;;;16.74;92.39;101422.75;6101058;19;20007;-69
2023/09/29 01:30:27;;;;;;;16.10;4.65;;;;;;;16.70;92.95;101420.38;6098240;19;20012;-70
2023/09/29 01:32:32;;;;;;;19.77;5.55;;;;;;;16.71;93.02;101422.06;6095520;19;20025;-69
2023/09/29 01:34:37;;;;;;;17.73;4.90;;;;;;;16.71;92.85;101424.72;6096592;19;20368;-69
2023/09/29 01:36:42;;;;;;;18.85;4.97;;;;;;;16.72;93.22;101418.47;6098703;19;20065;-70
2023/09/29 01:38:48;;;;;;;19.08;5.18;;;;;;;16.73;93.50;101422.84;6097233;19;20034;-70
2023/09/29 01:40:56;;;;;;;15.52;4.75;;;;;;;16.77;93.21;101416.41;6096892;19;20046;-71
2023/09/29 01:42:58;;;;;;;18.75;5.18;;;;;;;16.84;93.10;101412.50;6100102;19;20010;-71
2023/09/29 01:45:04;;;;;;;14.27;5.63;;;;;;;16.86;92.92;101411.47;6094309;19;20469;-71
2023/09/29 01:47:09;;;;;;;20.40;5.45;;;;;;;16.90;92.42;101412.13;6095341;19;20440;-69
2023/09/29 01:49:15;;;;;;;20.35;5.47;;;;;;;16.93;92.72;101411.97;6097763;19;20011;-69
2023/09/29 01:51:20;;;;;;;16.30;4.85;;;;;;;16.94;92.53;101400.41;6096309;19;20369;-71
2023/09/29 01:53:30;;;;;;;25.63;5.90;;;;;;;16.93;92.72;101405.78;6093207;19;20007;-71
2023/09/29 01:55:35;;;;;;;18.83;5.47;;;;;;;16.89;93.20;101395.34;6095275;19;20002;-73
2023/09/29 01:57:45;;;;;;;17.80;5.00;;;;;;;16.90;93.27;101401.50;6098004;19;20014;-75
2023/09/29 01:59:50;;;;;;;23.77;5.40;;;;;;;16.90;93.24;101404.16;6097852;19;19999;-73
2023/09/29 02:01:55;;;;;;;20.98;5.03;;;;;;;16.92;93.28;101398.78;6093896;19;20342;-72
2023/09/29 02:04:00;;;;;;;19.33;5.85;;;;;;;16.91;93.31;101397.09;6096843;19;20014;-72
2023/09/29 02:06:06;;;;;;;14.40;4.80;;;;;;;16.91;93.25;101397.94;6095464;19;20011;-74
2023/09/29 02:08:11;;;;;;;17.77;5.18;;;;;;;16.92;93.10;101398.78;6097365;19;20014;-71
2023/09/29 02:10:19;;;;;;;16.08;4.75;;;;;;;16.92;93.45;101402.28;6097661;19;20015;-70
2023/09/29 02:12:24;;;;;;;14.90;4.70;;;;;;;16.92;93.30;101396.13;6097815;19;20013;-70
2023/09/29 02:14:32;;;;;;;15.57;5.22;;;;;;;16.90;93.55;101393.53;6092665;19;20510;-69
2023/09/29 02:16:37;;;;;;;17.60;4.40;;;;;;;16.89;93.44;101384.72;6098308;19;20508;-73
2023/09/29 02:18:43;;;;;;;17.63;5.07;;;;;;;16.90;93.15;101390.88;6097299;19;20010;-70
2023/09/29 02:20:50;;;;;;;23.10;5.47;;;;;;;16.88;93.52;101393.66;6095857;19;20017;-70
2023/09/29 02:22:55;;;;;;;14.75;4.63;;;;;;;16.93;93.47;101380.13;6097301;19;20511;-72
2023/09/29 02:25:06;;;;;;;17.52;5.47;;;;;;;16.93;93.60;101382.78;6094557;19;20021;-73
2023/09/29 02:27:11;;;;;;;25.42;5.28;;;;;;;16.93;93.45;101371.28;6091791;19;20038;-74
2023/09/29 02:29:16;;;;;;;19.05;4.75;;;;;;;17.02;92.36;101368.94;6095921;19;20010;-72
2023/09/29 02:31:26;;;;;;;23.27;5.03;;;;;;;17.09;92.03;101380.91;6095179;19;20159;-71
2023/09/29 02:33:31;;;;;;;19.83;4.90;;;;;;;17.08;92.08;101381.84;6097897;19;20014;-72
2023/09/29 02:35:36;;;;;;;19.23;4.72;;;;;;;17.04;92.35;101388.31;6096936;19;20009;-73
2023/09/29 02:37:44;;;;;;;18.83;5.20;;;;;;;17.03;93.49;101377.75;6097311;19;20129;-73
2023/09/29 02:39:49;;;;;;;19.27;6.43;;;;;;;17.04;93.45;101383.00;6099795;19;20006;-70
2023/09/29 02:41:54;;;;;;;17.23;6.10;;;;;;;17.06;94.15;101365.19;6102847;19;20006;-71
2023/09/29 02:43:59;;;;;;;15.95;4.97;;;;;;;17.06;95.07;101365.19;6102131;19;20006;-71
2023/09/29 02:46:02;;;;;;;17.67;5.00;;;;;;;17.06;95.25;101372.25;6094686;19;20006;-71
2023/09/29 02:48:10;;;;;;;19.67;5.35;;;;;;;17.06;96.16;101358.97;6100568;19;20038;-70
2023/09/29 02:50:12;;;;;;;20.70;4.55;;;;;;;17.12;98.02;101348.03;6099341;19;20006;-69
2023/09/29 02:52:20;;;;;;;25.35;4.80;;;;;;;17.06;99.93;101330.66;6101306;19;20385;-69
2023/09/29 02:54:25;;;;;;;16.13;4.68;;;;;;;17.11;99.95;101315.31;6099007;19;20364;-69
2023/09/29 02:56:30;;;;;;;15.00;5.72;;;;;;;17.14;99.17;101324.88;6097698;19;20080;-69
2023/09/29 02:58:35;;;;;;;12.85;4.18;;;;;;;17.07;100.00;101329.69;6101274;19;20423;-70
2023/09/29 03:00:46;;;;;;;15.23;4.00;;;;;;;17.02;100.00;101330.91;6102361;19;20489;-71
2023/09/29 03:02:52;;;;;;;18.77;5.68;;;;;;;16.92;100.00;101335.06;6097406;19;20100;-73
2023/09/29 03:05:00;;;;;;;18.58;4.78;;;;;;;16.81;100.00;101328.59;6104111;19;20367;-72
2023/09/29 03:07:05;;;;;;;18.80;5.20;;;;;;;16.78;100.00;101333.22;6096462;19;20007;-74
2023/09/29 03:09:13;;;;;;;16.27;7.05;;;;;;;16.75;100.00;101333.38;6103433;19;20483;-72
2023/09/29 03:11:18;;;;;;;15.88;4.47;;;;;;;16.72;100.00;101331.75;6101398;19;20391;-74
2023/09/29 03:13:24;;;;;;;20.48;5.32;;;;;;;16.73;100.00;101324.66;6102739;19;20521;-72
2023/09/29 03:15:29;;;;;;;21.35;5.50;;;;;;;16.68;100.00;101323.09;6103206;19;20029;-70
2023/09/29 03:17:37;;;;;;;14.32;4.63;;;;;;;16.67;100.00;101320.56;6103939;19;20495;-70
2023/09/29 03:19:43;;;;;;;23.88;5.57;;;;;;;16.62;100.00;101320.81;6107068;19;20514;-70
2023/09/29 03:21:51;;;;;;;19.70;5.13;;;;;;;16.57;100.00;101320.22;6107317;19;20582;-70
2023/09/29 03:23:57;;;;;;;19.55;5.63;;;;;;;16.58;100.00;101311.31;6106782;19;20011;-70
2023/09/29 03:26:02;;;;;;;18.27;5.07;;;;;;;16.56;100.00;101307.91;6100299;19;20098;-70
2023/09/29 03:28:08;;;;;;;17.33;5.10;;;;;;;16.60;100.00;101298.81;6106506;19;20017;-70
2023/09/29 03:30:16;;;;;;;18.45;5.05;;;;;;;16.59;100.00;101304.25;6107643;19;20003;-70
2023/09/29 03:32:21;;;;;;;14.60;4.95;;;;;;;16.59;100.00;101301.59;6108097;19;20010;-70
2023/09/29 03:34:26;;;;;;;22.52;4.93;;;;;;;16.55;100.00;101295.59;6101248;19;20554;-71
2023/09/29 03:36:33;;;;;;;21.92;4.78;;;;;;;16.59;100.00;101298.94;6104869;19;20390;-73
2023/09/29 03:38:41;;;;;;;14.20;4.45;;;;;;;16.60;100.00;101295.31;6103909;19;20507;-72
2023/09/29 03:40:46;;;;;;;12.57;4.55;;;;;;;16.61;100.00;101297.91;6103282;19;20387;-72
2023/09/29 03:42:51;;;;;;;17.02;4.82;;;;;;;16.61;100.00;101287.28;6104080;19;20010;-72
2023/09/29 03:44:56;;;;;;;16.17;4.70;;;;;;;16.63;100.00;101282.72;6105870;19;20013;-72
2023/09/29 03:47:02;;;;;;;12.93;4.03;;;;;;;16.62;100.00;101280.16;6105070;19;20494;-73
2023/09/29 03:49:10;;;;;;;15.30;4.28;;;;;;;16.66;100.00;101274.56;6102057;19;20059;-73
2023/09/29 03:51:21;;;;;;;17.38;5.15;;;;;;;16.70;100.00;101279.72;6102444;19;20077;-69
2023/09/29 03:53:28;;;;;;;15.73;5.13;;;;;;;16.71;100.00;101278.75;6097644;19;20434;-70
2023/09/29 03:55:36;;;;;;;13.73;4.95;;;;;;;16.65;100.00;101275.53;6094163;19;20470;-70
2023/09/29 03:57:44;;;;;;;12.77;4.85;;;;;;;16.69;100.00;101273.53;6100023;19;20335;-70
2023/09/29 03:59:52;;;;;;;24.20;5.18;;;;;;;16.77;100.00;101273.09;6099845;19;20011;-70
2023/09/29 04:01:57;;;;;;;10.75;4.65;;;;;;;16.75;100.00;101269.69;6098599;19;20454;-69
2023/09/29 04:04:02;;;;;;;16.50;4.80;;;;;;;16.73;100.00;101271.56;6101409;19;20006;-70
2023/09/29 04:06:08;;;;;;;11.52;4.65;;;;;;;16.73;100.00;101274.22;6096889;19;20005;-70
2023/09/29 04:08:13;;;;;;;19.45;5.07;;;;;;;16.74;100.00;101274.13;6100808;19;20034;-71
2023/09/29 04:10:16;;;;;;;17.25;4.72;;;;;;;16.74;100.00;101273.28;6101874;19;20007;-70
2023/09/29 04:12:23;;;;;;;;;;;;;;;16.83;100.00;101275.41;6102025;19;20021;-69
2023/09/29 04:14:30;;;;;;;13.98;4.53;;;;;;;16.85;100.00;101276.16;6095259;19;19917;-70
2023/09/29 04:16:38;;;;;;;15.63;4.43;;;;;;;16.88;100.00;101279.50;6097643;19;20469;-70
2023/09/29 04:18:44;;;;;;;13.57;4.60;;;;;;;16.93;100.00;101276.59;6104154;19;20511;-70
2023/09/29 04:20:49;;;;;;;13.88;4.28;;;;;;;16.94;100.00;101265.00;6101554;19;20021;-70
2023/09/29 04:22:56;;;;;;;17.25;4.78;;;;;;;16.97;100.00;101270.13;6101813;19;20015;-70
2023/09/29 04:25:01;;;;;;;13.30;5.20;;;;;;;17.01;100.00;101270.78;6104083;19;20477;-70
2023/09/29 04:27:06;;;;;;;14.88;4.13;;;;;;;17.01;100.00;101273.44;6104717;19;20678;-70
2023/09/29 04:29:14;;;;;;;11.30;4.30;;;;;;;16.98;100.00;101274.50;6099436;19;20349;-69
2023/09/29 04:31:22;;;;;;;15.00;4.53;;;;;;;17.01;100.00;101279.63;6097496;19;20013;-69
2023/09/29 04:33:28;;;;;;;11.73;3.90;;;;;;;17.00;100.00;101285.88;6099362;19;20002;-70
2023/09/29 04:35:34;;;;;;;10.88;4.60;;;;;;;17.02;100.00;101288.44;6099420;19;20015;-69
2023/09/29 04:37:42;;;;;;;13.48;4.05;;;;;;;17.02;100.00;101276.00;6097375;19;20014;-73
2023/09/29 04:39:45;;;;;;;15.32;4.95;;;;;;;17.04;100.00;101276.78;6100485;19;20475;-71
2023/09/29 04:41:50;;;;;;;12.93;3.83;;;;;;;17.09;100.00;101258.78;6102102;19;20007;-70
2023/09/29 04:43:55;;;;;;;11.13;4.13;;;;;;;17.07;100.00;101265.97;6100358;19;20002;-69
2023/09/29 04:46:03;;;;;;;11.55;3.65;;;;;;;17.15;100.00;101260.19;6099939;19;20069;-69
2023/09/29 04:48:08;;;;;;;9.43;3.30;;;;;;;17.18;100.00;101267.13;6093033;19;20070;-69
2023/09/29 04:50:14;;;;;;;14.40;4.13;;;;;;;17.16;100.00;101259.22;6100526;19;20014;-69
2023/09/29 04:52:16;;;;;;;13.70;4.43;;;;;;;17.18;100.00;101256.50;6093350;19;20013;-69
2023/09/29 04:54:21;;;;;;;12.90;4.40;;;;;;;17.19;100.00;101251.06;6096127;19;20027;-71
2023/09/29 04:56:26;;;;;;;11.38;3.65;;;;;;;17.21;100.00;101256.28;6094885;19;20006;-71
2023/09/29 04:58:31;;;;;;;10.63;4.10;;;;;;;17.31;100.00;101255.63;6098135;19;20015;-69
2023/09/29 05:00:37;;;;;;;11.70;3.88;;;;;;;17.32;100.00;101253.81;6095313;19;20018;-69
2023/09/29 05:02:45;;;;;;;10.77;3.90;;;;;;;17.31;100.00;101252.13;6099194;19;20421;-69
2023/09/29 05:04:48;;;;;;;11.63;3.70;;;;;;;17.29;100.00;101252.22;6091273;19;20029;-71
2023/09/29 05:06:54;;;;;;;18.77;4.38;;;;;;;17.26;100.00;101254.22;6095304;19;20839;-70
2023/09/29 05:08:59;;;;;;;12.90;4.00;;;;;;;17.20;100.00;101249.28;6098597;19;20010;-69
2023/09/29 05:11:04;;;;;;;11.45;3.83;;;;;;;17.28;100.00;101257.63;6095766;19;20326;-71
2023/09/29 05:13:11;;;;;;;11.75;3.95;;;;;;;17.36;100.00;101255.34;6097594;19;20123;-71
2023/09/29 05:15:16;;;;;;;9.77;3.85;;;;;;;17.31;100.00;101260.09;6099862;19;20360;-73
2023/09/29 05:17:21;;;;;;;10.88;3.67;;;;;;;17.33;100.00;101247.59;6098972;19;20007;-73
2023/09/29 05:19:31;;;;;;;10.13;3.28;;;;;;;17.34;100.00;101257.25;6098600;19;20010;-72
2023/09/29 05:21:36;;;;;;;12.20;4.10;;;;;;;17.37;100.00;101250.88;6094595;19;20514;-71
2023/09/29 05:23:44;;;;;;;13.40;3.95;;;;;;;17.36;100.00;101249.19;6102331;19;20003;-70
2023/09/29 05:25:50;;;;;;;12.32;4.13;;;;;;;17.36;100.00;101260.66;6078539;19;20012;-73
2023/09/29 05:27:56;;;;;;;7.90;3.42;;;;;;;17.50;100.00;101262.44;6096992;19;20014;-71
2023/09/29 05:29:58;;;;;;;10.55;3.88;;;;;;;17.50;100.00;101268.63;6069995;19;20441;-73
2023/09/29 05:32:03;;;;;;;9.10;3.22;;;;;;;17.56;100.00;101267.38;6099813;19;20042;-73
2023/09/29 05:34:09;;;;;;;9.20;3.47;;;;;;;17.65;100.00;101263.31;6097121;19;20014;-73
2023/09/29 05:36:18;;;;;;;8.82;3.47;;;;;;;17.72;100.00;101264.59;6097426;19;20011;-70
2023/09/29 05:38:24;;;;;;;6.68;3.20;;;;;;;17.76;100.00;101263.47;6101140;19;20478;-69
2023/09/29 05:40:29;;;;;;;11.23;3.53;;;;;;;17.73;100.00;101263.66;6092880;19;20626;-74
2023/09/29 05:42:31;;;;;;;10.13;3.83;;;;;;;17.82;100.00;101262.25;6095360;19;20037;-74
2023/09/29 05:44:53;;;;;;;11.13;4.03;;;;;;;17.81;100.00;101261.41;6098871;19;20044;-70
2023/09/29 05:46:59;;;;;;;9.02;3.65;;;;;;;17.78;100.00;101261.56;6098504;19;20497;-70
2023/09/29 05:49:05;;;;;;;11.30;3.38;;;;;;;17.80;100.00;101256.16;6100792;19;20014;-71
2023/09/29 05:51:11;;;;;;;9.10;3.53;;;;;;;17.81;100.00;101252.56;6102845;19;20436;-71
2023/09/29 05:53:19;;;;;;;8.35;3.70;;;;;;;17.86;100.00;101258.44;6098499;19;20074;-71
2023/09/29 05:55:24;;;;;;;9.48;3.80;;;;;;;17.90;100.00;101259.94;6102636;19;20014;-70
2023/09/29 05:57:29;;;;;;;12.70;3.85;;;;;;;17.88;100.00;101264.53;6098405;19;20458;-69
2023/09/29 05:59:35;;;;;;;9.73;4.47;;;;;;;17.90;100.00;101265.25;6099364;19;20038;-72
2023/09/29 06:01:49;;;;;;;8.88;3.60;;;;;;;17.97;100.00;101275.41;6101311;19;20038;-71
2023/09/29 06:04:16;;;;;;;11.90;3.88;;;;;;;17.96;100.00;101271.06;6096914;19;20014;-71
2023/09/29 06:06:19;;;;;;;15.40;4.22;;;;;;;17.97;100.00;101264.78;6097000;19;20017;-71
2023/09/29 06:08:28;;;;;;;10.30;4.10;;;;;;;18.03;100.00;101276.81;6102105;19;20010;-69
2023/09/29 06:10:52;;;;;;;12.02;3.58;;;;;;;18.04;100.00;101272.38;6098445;19;20007;-73
2023/09/29 06:12:57;;;;;;;13.88;4.00;;;;;;;18.05;100.00;101276.72;6101439;19;20010;-69
2023/09/29 06:15:03;;;;;;;8.75;3.47;;;;;;;18.02;100.00;101279.59;6104279;19;20006;-69
2023/09/29 06:17:10;;;;;;;12.52;3.92;;;;;;;18.07;100.00;101278.31;6102621;19;20003;-69
2023/09/29 06:19:15;;;;;;;10.32;3.75;;;;;;;18.05;100.00;101282.03;6104038;19;20014;-69
2023/09/29 06:21:20;;;;;;;7.70;3.58;;;;;;;18.07;100.00;101282.81;6105953;19;20011;-70
2023/09/29 06:23:32;;;;;;;8.95;3.65;;;;;;;18.08;100.00;101289.81;6045648;19;20512;-71
2023/09/29 06:25:42;;;;;;;12.52;3.50;;;;;;;18.07;100.00;101290.78;6105957;19;20006;-73
2023/09/29 06:27:59;;;;;;;12.98;4.55;;;;;;;18.13;100.00;101293.03;6108359;19;20014;-74
2023/09/29 06:30:24;;;;;;;10.50;3.85;;;;;;;18.17;100.00;101294.56;6091781;19;20003;-71
2023/09/29 06:32:29;;;;;;;10.45;4.20;;;;;;;18.16;100.00;101292.81;6102591;19;20584;-71
2023/09/29 06:34:34;;;;;;;8.80;3.63;;;;;;;18.23;100.00;101296.81;6080095;19;20466;-69
2023/09/29 06:36:42;;;;;;;10.60;3.72;;;;;;;18.25;100.00;101299.38;6080965;19;20011;-70
2023/09/29 06:38:54;;;;;;;12.40;4.63;;;;;;;18.18;100.00;101296.25;6068969;19;20245;-70
2023/09/29 06:40:59;;;;;;;8.88;3.92;;;;;;;18.06;100.00;101295.25;6099184;19;20006;-70
2023/09/29 06:43:04;;;;;;;11.18;4.10;;;;;;;18.04;100.00;101297.16;6097298;19;20109;-69
2023/09/29 06:45:10;;;;;;;11.00;3.80;;;;;;;17.97;100.00;101302.00;6072827;19;20006;-69
2023/09/29 06:47:13;;;;;;;11.25;3.72;;;;;;;17.94;100.00;101298.69;6099804;19;20018;-70
2023/09/29 06:49:18;;;;;;;;;;;;;;;17.92;100.00;101301.44;6095024;19;20078;-68
2023/09/29 06:51:23;;;;;;;9.82;3.83;;;;;;;17.95;100.00;101297.72;6078821;19;19938;-71
2023/09/29 06:53:29;;;;;;;9.32;4.57;;;;;;;17.95;100.00;101300.38;6096667;19;20453;-69
2023/09/29 06:55:37;;;;;;;8.60;3.45;;;;;;;17.96;100.00;101302.97;6102041;19;20037;-69
2023/09/29 06:57:46;;;;;;;8.18;3.72;;;;;;;17.99;100.00;101302.75;6087161;19;20351;-68
2023/09/29 06:59:51;;;;;;;8.65;3.70;;;;;;;18.04;100.00;101305.13;6107203;19;20360;-74
2023/09/29 07:01:58;;;;;;;10.38;3.72;;;;;;;18.03;100.00;101302.56;6101931;19;20015;-69
2023/09/29 07:04:04;;;;;;;8.68;3.67;;;;;;;18.04;100.00;101298.97;6081424;19;20015;-69
2023/09/29 07:06:13;;;;;;;12.93;4.05;;;;;;;18.08;100.00;101305.78;6080734;19;20376;-69
2023/09/29 07:08:18;;;;;;;13.70;3.92;;;;;;;18.07;100.00;101304.94;6100243;19;20006;-69
2023/09/29 07:10:24;;;;;;;12.48;3.63;;;;;;;18.10;100.00;101303.88;6083252;19;20014;-70
2023/09/29 07:12:32;;;;;;;12.25;4.07;;;;;;;18.09;100.00;101302.16;6094585;19;20013;-71
2023/09/29 07:14:37;;;;;;;10.43;4.55;;;;;;;18.16;100.00;101311.44;6076531;19;21315;-68
2023/09/29 07:16:44;;;;;;;11.85;4.60;;;;;;;18.14;100.00;101306.25;6100266;19;20023;-68
2023/09/29 07:18:49;;;;;;;12.90;4.50;;;;;;;18.14;100.00;101314.22;6103947;19;20015;-74
2023/09/29 07:20:54;;;;;;;10.80;3.75;;;;;;;18.19;100.00;101316.56;6105370;19;20037;-74
2023/09/29 07:23:02;;;;;;;10.40;4.10;;;;;;;18.23;100.00;101320.75;6105828;19;20014;-69
2023/09/29 07:25:11;;;;;;;12.80;4.28;;;;;;;18.21;100.00;101319.97;6086487;19;20006;-70
2023/09/29 07:27:14;;;;;;;11.23;4.05;;;;;;;18.22;100.00;101316.38;6083924;19;20046;-70
2023/09/29 07:29:22;;;;;;;8.52;3.67;;;;;;;18.24;100.00;101326.91;6103924;19;20487;-71
2023/09/29 07:31:36;;;;;;;12.00;4.43;;;;;;;18.20;100.00;101324.44;6106402;19;20340;-70
2023/09/29 07:33:41;;;;;;;12.20;4.40;;;;;;;18.17;100.00;101332.63;6105750;19;20010;-71
2023/09/29 07:35:46;;;;;;;12.65;4.78;;;;;;;18.15;100.00;101325.72;6103140;19;20155;-74
2023/09/29 07:37:52;;;;;;;8.55;3.80;;;;;;;18.12;100.00;101323.25;6106651;19;20014;-73
2023/09/29 07:39:58;;;;;;;10.05;3.75;;;;;;;18.14;100.00;101322.19;6102515;19;20011;-70
2023/09/29 07:42:04;;;;;;;9.02;3.50;;;;;;;18.16;100.00;101330.06;6094885;19;20031;-71
2023/09/29 07:44:10;;;;;;;10.27;4.15;;;;;;;18.15;100.00;101320.38;6100831;19;20088;-69
2023/09/29 07:46:21;;;;;;;10.73;4.20;;;;;;;18.21;100.00;101325.31;6099851;19;20006;-72
2023/09/29 07:48:27;;;;;;;10.55;4.38;;;;;;;18.24;100.00;101330.41;6095883;19;20449;-72
2023/09/29 07:50:32;;;;;;;14.32;5.00;;;;;;;18.33;100.00;101327.19;6090545;19;20015;-71
2023/09/29 07:52:38;;;;;;;9.40;4.28;;;;;;;18.45;100.00;101329.97;6096226;19;20430;-72
2023/09/29 07:54:45;;;;;;;9.27;4.50;;;;;;;18.63;100.00;101334.94;6104731;19;20019;-71
2023/09/29 07:56:50;;;;;;;11.52;4.32;;;;;;;18.83;100.00;101338.97;6103933;19;20042;-71
2023/09/29 07:58:57;;;;;;;10.57;4.00;;;;;;;18.92;100.00;101333.97;6107810;19;20541;-71
2023/09/29 08:01:02;;;;;;;11.15;4.20;;;;;;;18.85;100.00;101346.84;6098262;19;20724;-71
2023/09/29 08:03:10;;;;;;;10.05;3.95;;;;;;;18.85;100.00;101333.53;6101260;19;20018;-73
2023/09/29 08:05:13;;;;;;;13.82;4.00;;;;;;;18.86;100.00;101341.41;6106044;19;20002;-72
2023/09/29 08:07:19;;;;;;;9.60;4.22;;;;;;;18.90;100.00;101346.53;6104976;19;20010;-72
2023/09/29 08:09:24;;;;;;;8.95;3.65;;;;;;;18.97;100.00;101342.50;6101463;19;20538;-73
2023/09/29 08:11:29;;;;;;;11.75;3.92;;;;;;;19.06;100.00;101347.19;6107951;19;20344;-73
2023/09/29 08:13:34;;;;;;;13.30;4.22;;;;;;;19.12;100.00;101344.13;6102989;19;20704;-72
2023/09/29 08:15:39;;;;;;;10.15;4.40;;;;;;;19.22;100.00;101352.31;6104584;19;20133;-73
2023/09/29 08:17:49;;;;;;;11.70;4.88;;;;;;;19.30;100.00;101358.00;6103316;19;20019;-72
2023/09/29 08:19:57;;;;;;;10.38;3.85;;;;;;;19.64;100.00;101350.28;6105451;19;20034;-72
2023/09/29 08:22:02;;;;;;;11.18;3.80;;;;;;;19.66;100.00;101357.25;6104348;19;20091;-72
2023/09/29 08:24:08;;;;;;;9.23;3.90;;;;;;;19.69;100.00;101354.38;6096054;19;20025;-72
2023/09/29 08:26:16;;;;;;;10.90;4.55;;;;;;;19.74;100.00;101354.91;6096741;19;20477;-71
2023/09/29 08:28:21;;;;;;;10.88;3.78;;;;;;;19.82;100.00;101366.84;6099515;19;20006;-70
2023/09/29 08:30:27;;;;;;;12.75;4.22;;;;;;;19.84;100.00;101365.78;6088756;19;20579;-72
2023/09/29 08:32:33;;;;;;;9.43;3.85;;;;;;;19.88;100.00;101363.72;6090527;19;20296;-72
2023/09/29 08:34:39;;;;;;;10.32;3.92;;;;;;;19.94;100.00;101366.81;6095068;19;20471;-73
2023/09/29 08:36:47;;;;;;;7.97;3.55;;;;;;;19.95;100.00;101368.53;6095445;19;20038;-72
2023/09/29 08:38:52;;;;;;;9.50;3.63;;;;;;;20.01;100.00;101371.72;6098504;19;20007;-72
2023/09/29 08:41:02;;;;;;;8.45;4.18;;;;;;;20.07;100.00;101372.13;6074633;19;20380;-72
2023/09/29 08:43:11;;;;;;;10.60;4.28;;;;;;;19.94;100.00;101376.66;6092552;19;20558;-73
2023/09/29 08:45:17;;;;;;;10.00;4.45;;;;;;;19.88;100.00;101372.63;6095973;19;20006;-73
2023/09/29 08:47:30;;;;;;;10.65;4.00;;;;;;;19.76;100.00;101372.63;6094470;19;20029;-73
2023/09/29 08:49:36;;;;;;;11.55;3.85;;;;;;;19.68;100.00;101383.84;6098710;19;20250;-72
2023/09/29 08:51:58;;;;;;;10.68;4.45;;;;;;;19.60;100.00;101400.31;6100015;19;20010;-71
2023/09/29 08:54:10;;;;;;;12.45;5.95;;;;;;;19.48;100.00;101388.72;6090641;19;20010;-72
2023/09/29 08:56:19;;;;;;;11.80;6.25;;;;;;;19.52;100.00;101392.00;6100944;19;20369;-72
2023/09/29 08:58:27;;;;;;;11.88;5.95;;;;;;;19.45;100.00;101393.38;6101845;19;20025;-74
2023/09/29 09:00:33;;;;;;;9.07;5.18;;;;;;;19.42;100.00;101391.78;6091205;19;20023;-74
2023/09/29 09:02:40;;;;;;;9.75;5.00;;;;;;;19.34;100.00;101406.59;6098006;19;20510;-74
2023/09/29 09:04:50;;;;;;;9.88;4.88;;;;;;;19.25;100.00;101410.75;6100350;19;20014;-71
2023/09/29 09:06:58;;;;;;;7.70;4.28;;;;;;;19.17;100.00;101402.41;6085126;19;20087;-71
2023/09/29 09:09:04;;;;;;;9.57;4.35;;;;;;;19.08;100.00;101409.22;6097595;19;20277;-71
2023/09/29 09:11:12;;;;;;;12.80;4.43;;;;;;;19.10;100.00;101412.63;6100051;19;20449;-71
2023/09/29 09:13:26;;;;;;;10.73;4.47;;;;;;;19.16;100.00;101400.72;6097182;19;20018;-72
2023/09/29 09:15:29;;;;;;;9.60;4.68;;;;;;;19.20;100.00;101408.41;6098876;19;20011;-72
2023/09/29 09:17:36;;;;;;;11.02;4.78;;;;;;;19.24;100.00;101401.88;6096985;19;20010;-72
2023/09/29 09:19:51;;;;;;;8.82;4.53;;;;;;;19.11;100.00;101397.50;6100704;19;20399;-74
2023/09/29 09:21:59;;;;;;;11.02;5.75;;;;;;;19.21;100.00;101399.44;6097768;19;20006;-74
2023/09/29 09:24:04;;;;;;;11.48;5.80;;;;;;;19.29;100.00;101412.25;6081891;19;20010;-73
2023/09/29 09:26:17;;;;;;;10.70;5.53;;;;;;;19.22;100.00;101409.16;6100018;19;20010;-73
2023/09/29 09:28:23;;;;;;;9.63;5.55;;;;;;;19.25;100.00;101411.59;6105045;19;20026;-73
2023/09/29 09:30:26;;;;;;;11.68;6.05;;;;;;;19.16;100.00;101414.88;6098257;19;20006;-73
2023/09/29 09:32:31;;;;;;;9.50;5.90;;;;;;;19.13;100.00;101414.25;6091758;19;20490;-73
2023/09/29 09:34:39;;;;;;;11.73;6.00;;;;;;;19.15;100.00;101415.84;6096313;19;20478;-74
2023/09/29 09:36:52;;;;;;;13.63;6.10;;;;;;;19.18;100.00;101415.63;6097339;19;20039;-74
2023/09/29 09:39:03;;;;;;;15.35;7.20;;;;;;;19.21;100.00;101428.75;6100446;19;20011;-73
2023/09/29 09:41:09;;;;;;;12.40;6.93;;;;;;;19.12;100.00;101425.88;6100531;19;20007;-72